Time;durP1;ratioP1;P1;durP2;ratioP2;P2;SDS_P1;SDS_P2;PMS_P1;PMS_P2;Temp;Humidity;BMP_temperature;BMP_pressure;BME280_temperature;BME280_humidity;BME280_pressure;Samples;Min_cycle;Max_cycle;Signal;HPM_P1;HPM_P2
2021/07/19 00:00:53;;;;;;;;;;;;;;;;;;4974074;28;19925;-84
2021/07/19 00:03:21;;;;;;;;;;;;;;;;;;4978670;28;19934;-85
2021/07/19 00:05:49;;;;;;;;;;;;;;;;;;4969395;28;19934;-81
2021/07/19 00:08:29;;;;;;;;;;;;;;;;;;4952726;28;19936;-80
2021/07/19 00:10:57;;;;;;;;;;;;;;;;;;4982141;28;20056;-80
2021/07/19 00:13:26;;;;;;;;;;;;;;;;;;4973320;28;19926;-81
2021/07/19 00:15:54;;;;;;;;;;;;;;;;;;4989981;28;19929;-84
2021/07/19 00:18:23;;;;;;;;;;;;;;;;;;4972023;28;19926;-82
2021/07/19 00:20:51;;;;;;;;;;;;;;;;;;5000107;28;19925;-84
2021/07/19 00:23:19;;;;;;;;;;;;;;;;;;4976988;28;20311;-82
2021/07/19 00:25:49;;;;;;;;;;;;;;;;;;4952972;28;19933;-81
2021/07/19 00:28:18;;;;;;;;;;;;;;;;;;4958682;28;19930;-82
2021/07/19 00:30:47;;;;;;;;;;;;;;;;;;4976741;28;20315;-81
2021/07/19 00:33:16;;;;;;;;;;;;;;;;;;4982510;28;19926;-83
2021/07/19 00:35:44;;;;;;;;;;;;;;;;;;4967807;28;19930;-82
2021/07/19 00:38:12;;;;;;;;;;;;;;;;;;4976956;28;19926;-82
2021/07/19 00:40:40;;;;;;;;;;;;;;;;;;4955693;28;19933;-84
2021/07/19 00:43:17;;;;;;;;;;;;;;;;;;4973615;28;19930;-83
2021/07/19 00:45:45;;;;;;;;;;;;;;;;;;4955110;28;20383;-83
2021/07/19 00:48:14;;;;;;;;;;;;;;;;;;4970696;28;20370;-81
2021/07/19 00:50:43;;;;;;;;;;;;;;;;;;4972742;28;19930;-83
2021/07/19 00:53:12;;;;;;;;;;;;;;;;;;4975651;28;20327;-80
2021/07/19 00:55:42;;;;;;;;;;;;;;;;;;4969728;28;19926;-80
2021/07/19 00:58:11;;;;;;;;;;;;;;;;;;4969749;28;20395;-82
2021/07/19 01:00:42;;;;;;;;;;;;;;;;;;4970720;28;19926;-83
2021/07/19 01:03:11;;;;;;;;;;;;;;;;;;4983820;28;19930;-80
2021/07/19 01:05:42;;;;;;;;;;;;;;;;;;4973337;28;19929;-82
2021/07/19 01:08:13;;;;;;;;;;;;;;;;;;4955340;28;19930;-84
2021/07/19 01:10:44;;;;;;;;;;;;;;;;;;5006848;28;19914;-88
2021/07/19 01:13:12;;;;;;;;;;;;;;;;;;4976747;28;19922;-90
2021/07/19 01:15:44;;;;;;;;;;;;;;;;;;4975064;28;19930;-81
2021/07/19 01:18:14;;;;;;;;;;;;;;;;;;4959864;28;19937;-85
2021/07/19 01:20:52;;;;;;;;;;;;;;;;;;5001667;28;19926;-84
2021/07/19 01:23:40;;;;;;;;;;;;;;;;;;4992283;28;19926;-82
2021/07/19 01:26:22;;;;;;;;;;;;;;;;;;4986580;28;19929;-82
2021/07/19 01:28:52;;;;;;;;;;;;;;;;;;4990067;28;19933;-82
2021/07/19 01:31:28;;;;;;;;;;;;;;;;;;4963611;28;19925;-82
2021/07/19 01:33:57;;;;;;;;;;;;;;;;;;4975366;28;19926;-85
2021/07/19 01:36:29;;;;;;;;;;;;;;;;;;4958291;28;19930;-82
2021/07/19 01:39:27;;;;;;;;;;;;;;;;;;4968953;28;19936;-81
2021/07/19 01:41:59;;;;;;;;;;;;;;;;;;4957399;28;19926;-82
2021/07/19 01:44:29;;;;;;;;;;;;;;;;;;4957266;28;19926;-85
2021/07/19 01:46:59;;;;;;;;;;;;;;;;;;4986260;28;20505;-81
2021/07/19 01:49:29;;;;;;;;;;;;;;;;;;4970304;28;19926;-85
2021/07/19 01:51:59;;;;;;;;;;;;;;;;;;4953670;28;19926;-83
2021/07/19 01:54:30;;;;;;;;;;;;;;;;;;4957523;28;20318;-81
2021/07/19 01:57:01;;;;;;;;;;;;;;;;;;4966335;28;19933;-85
2021/07/19 01:59:34;;;;;;;;;;;;;;;;;;4980319;28;19926;-81
2021/07/19 02:02:28;;;;;;;;;;;;;;;;;;4966835;28;19926;-82
2021/07/19 02:05:02;;;;;;;;;;;;;;;;;;4975529;28;19925;-84
2021/07/19 02:07:31;;;;;;;;;;;;;;;;;;4971227;28;19926;-83
2021/07/19 02:10:07;;;;;;;;;;;;;;;;;;4998387;28;19929;-85
2021/07/19 02:12:41;;;;;;;;;;;;;;;;;;4975224;28;19925;-81
2021/07/19 02:15:13;;;;;;;;;;;;;;;;;;4990790;28;19925;-82
2021/07/19 02:17:42;;;;;;;;;;;;;;;;;;4960032;28;19937;-82
2021/07/19 02:20:13;;;;;;;;;;;;;;;;;;4960556;28;19933;-86
2021/07/19 02:22:41;;;;;;;;;;;;;;;;;;4981840;28;19926;-84
2021/07/19 02:25:30;;;;;;;;;;;;;;;;;;4984324;28;19937;-84
2021/07/19 02:28:00;;;;;;;;;;;;;;;;;;4980380;28;19929;-86
2021/07/19 02:30:31;;;;;;;;;;;;;;;;;;4971059;28;20032;-85
2021/07/19 02:33:00;;;;;;;;;;;;;;;;;;4978829;28;19926;-82
2021/07/19 02:35:31;;;;;;;;;;;;;;;;;;4968609;28;20492;-83
2021/07/19 02:38:01;;;;;;;;;;;;;;;;;;4968070;28;20323;-81
2021/07/19 02:40:37;;;;;;;;;;;;;;;;;;4970640;28;20402;-84
2021/07/19 02:43:07;;;;;;;;;;;;;;;;;;4963848;28;20292;-84
2021/07/19 02:45:40;;;;;;;;;;;;;;;;;;4960741;28;19930;-83
2021/07/19 02:48:09;;;;;;;;;;;;;;;;;;4982545;28;19925;-83
2021/07/19 02:50:41;;;;;;;;;;;;;;;;;;4975647;28;19926;-83
2021/07/19 02:53:11;;;;;;;;;;;;;;;;;;4975968;28;19930;-82
2021/07/19 02:55:40;;;;;;;;;;;;;;;;;;4965032;28;20291;-88
2021/07/19 02:58:11;;;;;;;;;;;;;;;;;;4975708;28;19933;-85
2021/07/19 03:00:42;;;;;;;;;;;;;;;;;;4953710;28;20234;-83
2021/07/19 03:03:13;;;;;;;;;;;;;;;;;;4985115;28;19957;-82
2021/07/19 03:05:43;;;;;;;;;;;;;;;;;;4981007;28;19933;-87
2021/07/19 03:08:17;;;;;;;;;;;;;;;;;;4960270;28;20183;-82
2021/07/19 03:11:06;;;;;;;;;;;;;;;;;;4980343;28;19926;-85
2021/07/19 03:13:35;;;;;;;;;;;;;;;;;;4971356;28;19925;-84
2021/07/19 03:16:05;;;;;;;;;;;;;;;;;;4960837;28;20299;-84
2021/07/19 03:18:37;;;;;;;;;;;;;;;;;;4979315;28;19933;-85
2021/07/19 03:21:06;;;;;;;;;;;;;;;;;;4962922;28;19956;-85
2021/07/19 03:23:37;;;;;;;;;;;;;;;;;;4975125;28;19936;-88
2021/07/19 03:26:08;;;;;;;;;;;;;;;;;;4958558;28;20283;-85
2021/07/19 03:28:37;;;;;;;;;;;;;;;;;;4977575;28;19926;-84
2021/07/19 03:31:07;;;;;;;;;;;;;;;;;;4976157;28;20383;-85
2021/07/19 03:33:39;;;;;;;;;;;;;;;;;;4955169;28;19930;-85
2021/07/19 03:36:08;;;;;;;;;;;;;;;;;;4974083;28;19926;-88
2021/07/19 03:38:37;;;;;;;;;;;;;;;;;;4970391;28;19937;-85
2021/07/19 03:41:25;;;;;;;;;;;;;;;;;;4996960;28;19926;-85
2021/07/19 03:43:54;;;;;;;;;;;;;;;;;;4983854;28;19932;-84
2021/07/19 03:46:24;;;;;;;;;;;;;;;;;;4964375;28;19926;-87
2021/07/19 03:48:53;;;;;;;;;;;;;;;;;;4974998;28;19930;-82
2021/07/19 03:51:22;;;;;;;;;;;;;;;;;;4975936;28;19926;-86
2021/07/19 03:53:53;;;;;;;;;;;;;;;;;;4976996;28;19933;-86
2021/07/19 03:56:25;;;;;;;;;;;;;;;;;;4960712;28;19933;-87
2021/07/19 03:58:55;;;;;;;;;;;;;;;;;;4965445;28;19925;-85
2021/07/19 04:01:25;;;;;;;;;;;;;;;;;;5015383;28;19929;-90
2021/07/19 04:04:04;;;;;;;;;;;;;;;;;;5000230;28;19920;-89
2021/07/19 04:06:34;;;;;;;;;;;;;;;;;;4982966;28;19997;-89
2021/07/19 04:09:03;;;;;;;;;;;;;;;;;;4999782;28;19924;-89
2021/07/19 04:11:36;;;;;;;;;;;;;;;;;;4999415;28;19914;-88
2021/07/19 04:14:09;;;;;;;;;;;;;;;;;;4997335;28;19933;-86
2021/07/19 04:16:41;;;;;;;;;;;;;;;;;;4958759;28;19926;-85
2021/07/19 04:19:12;;;;;;;;;;;;;;;;;;4976849;28;20223;-81
2021/07/19 04:21:41;;;;;;;;;;;;;;;;;;4978765;28;20372;-83
2021/07/19 04:24:15;;;;;;;;;;;;;;;;;;4980895;28;19926;-83
2021/07/19 04:26:46;;;;;;;;;;;;;;;;;;4959317;28;19948;-84
2021/07/19 04:29:21;;;;;;;;;;;;;;;;;;4964988;28;20350;-82
2021/07/19 04:31:56;;;;;;;;;;;;;;;;;;4974643;28;19941;-83
2021/07/19 04:34:30;;;;;;;;;;;;;;;;;;4974354;28;19926;-85
2021/07/19 04:37:04;;;;;;;;;;;;;;;;;;4969219;28;19926;-81
2021/07/19 04:39:37;;;;;;;;;;;;;;;;;;4951004;28;19930;-82
2021/07/19 04:42:07;;;;;;;;;;;;;;;;;;4966157;28;20529;-82
2021/07/19 04:44:37;;;;;;;;;;;;;;;;;;4952164;28;19926;-83
2021/07/19 04:47:09;;;;;;;;;;;;;;;;;;4993607;28;19933;-86
2021/07/19 04:49:41;;;;;;;;;;;;;;;;;;4955201;28;20439;-81
2021/07/19 04:52:10;;;;;;;;;;;;;;;;;;4956291;28;19925;-82
2021/07/19 04:54:42;;;;;;;;;;;;;;;;;;4976094;28;19941;-84
2021/07/19 04:57:14;;;;;;;;;;;;;;;;;;4980517;28;19925;-85
2021/07/19 04:59:49;;;;;;;;;;;;;;;;;;4956664;28;19929;-84
2021/07/19 05:02:21;;;;;;;;;;;;;;;;;;4955113;28;19934;-84
2021/07/19 05:04:53;;;;;;;;;;;;;;;;;;4956921;28;19937;-84
2021/07/19 05:07:23;;;;;;;;;;;;;;;;;;4978777;28;19934;-84
2021/07/19 05:09:56;;;;;;;;;;;;;;;;;;4989497;28;19934;-82
2021/07/19 05:12:28;;;;;;;;;;;;;;;;;;4999771;28;19929;-81
2021/07/19 05:14:58;;;;;;;;;;;;;;;;;;4959845;28;19926;-83
2021/07/19 05:17:34;;;;;;;;;;;;;;;;;;4971406;28;20316;-84
2021/07/19 05:20:04;;;;;;;;;;;;;;;;;;4958658;28;19926;-83
2021/07/19 05:22:35;;;;;;;;;;;;;;;;;;4961640;28;19933;-81
2021/07/19 05:25:04;;;;;;;;;;;;;;;;;;4979656;28;19925;-81
2021/07/19 05:27:33;;;;;;;;;;;;;;;;;;4956166;28;20311;-81
2021/07/19 05:30:02;;;;;;;;;;;;;;;;;;4966020;28;19926;-85
2021/07/19 05:32:34;;;;;;;;;;;;;;;;;;4969431;28;19926;-82
2021/07/19 05:35:04;;;;;;;;;;;;;;;;;;4999494;28;19925;-82
2021/07/19 05:37:33;;;;;;;;;;;;;;;;;;4991948;28;19926;-82
2021/07/19 05:40:02;;;;;;;;;;;;;;;;;;4992707;28;19925;-82
2021/07/19 05:42:31;;;;;;;;;;;;;;;;;;4950879;28;19930;-82
2021/07/19 05:45:01;;;;;;;;;;;;;;;;;;4961672;28;19926;-86
2021/07/19 05:47:30;;;;;;;;;;;;;;;;;;4977466;28;19930;-81
2021/07/19 05:49:59;;;;;;;;;;;;;;;;;;4962497;28;19925;-85
2021/07/19 05:52:28;;;;;;;;;;;;;;;;;;4978820;28;19952;-82
2021/07/19 05:54:57;;;;;;;;;;;;;;;;;;4958929;28;19930;-83
2021/07/19 05:57:27;;;;;;;;;;;;;;;;;;4978189;28;19930;-84
2021/07/19 05:59:57;;;;;;;;;;;;;;;;;;4967286;28;19925;-83
2021/07/19 06:02:25;;;;;;;;;;;;;;;;;;4970546;28;20117;-82
2021/07/19 06:04:54;;;;;;;;;;;;;;;;;;4991134;28;19933;-84
2021/07/19 06:07:23;;;;;;;;;;;;;;;;;;4971088;28;20413;-83
2021/07/19 06:09:52;;;;;;;;;;;;;;;;;;4974457;28;19926;-85
2021/07/19 06:12:21;;;;;;;;;;;;;;;;;;4979129;28;19930;-81
2021/07/19 06:14:49;;;;;;;;;;;;;;;;;;4990530;28;19926;-81
2021/07/19 06:17:17;;;;;;;;;;;;;;;;;;4981973;28;19926;-82
2021/07/19 06:19:48;;;;;;;;;;;;;;;;;;4985969;28;20437;-83
2021/07/19 06:22:17;;;;;;;;;;;;;;;;;;4995890;28;19933;-82
2021/07/19 06:24:50;;;;;;;;;;;;;;;;;;4966021;28;20395;-84
2021/07/19 06:27:19;;;;;;;;;;;;;;;;;;4958151;28;19933;-82
2021/07/19 06:29:47;;;;;;;;;;;;;;;;;;4959821;28;19926;-81
2021/07/19 06:32:15;;;;;;;;;;;;;;;;;;4956607;28;19926;-80
2021/07/19 06:34:44;;;;;;;;;;;;;;;;;;4963078;28;19940;-83
2021/07/19 06:37:12;;;;;;;;;;;;;;;;;;4984844;28;20004;-82
2021/07/19 06:39:41;;;;;;;;;;;;;;;;;;4964775;28;19930;-85
2021/07/19 06:42:10;;;;;;;;;;;;;;;;;;4982678;28;19925;-84
2021/07/19 06:44:38;;;;;;;;;;;;;;;;;;4968786;28;19937;-82
2021/07/19 06:47:07;;;;;;;;;;;;;;;;;;4980660;28;19926;-85
2021/07/19 06:49:35;;;;;;;;;;;;;;;;;;4979241;28;19926;-82
2021/07/19 06:52:04;;;;;;;;;;;;;;;;;;4955270;28;19970;-82
2021/07/19 06:54:32;;;;;;;;;;;;;;;;;;4955986;28;19929;-81
2021/07/19 06:57:00;;;;;;;;;;;;;;;;;;4971910;28;19933;-82
2021/07/19 06:59:31;;;;;;;;;;;;;;;;;;4956540;28;19941;-86
2021/07/19 07:01:59;;;;;;;;;;;;;;;;;;4972972;28;19925;-83
2021/07/19 07:04:27;;;;;;;;;;;;;;;;;;4992701;28;20023;-87
2021/07/19 07:06:56;;;;;;;;;;;;;;;;;;4983451;28;19920;-87
2021/07/19 07:09:24;;;;;;;;;;;;;;;;;;4982541;28;20399;-80
2021/07/19 07:12:02;;;;;;;;;;;;;;;;;;4968012;28;19930;-83
2021/07/19 07:14:32;;;;;;;;;;;;;;;;;;4984501;28;19933;-85
2021/07/19 07:17:00;;;;;;;;;;;;;;;;;;4982213;28;19917;-81
2021/07/19 07:19:29;;;;;;;;;;;;;;;;;;4970563;28;20325;-82
2021/07/19 07:21:57;;;;;;;;;;;;;;;;;;4986857;28;19949;-81
2021/07/19 07:24:25;;;;;;;;;;;;;;;;;;4955094;28;20407;-83
2021/07/19 07:26:54;;;;;;;;;;;;;;;;;;4983032;28;19930;-84
2021/07/19 07:29:22;;;;;;;;;;;;;;;;;;4991212;28;20068;-84
2021/07/19 07:31:52;;;;;;;;;;;;;;;;;;4958454;28;19929;-84
2021/07/19 07:34:21;;;;;;;;;;;;;;;;;;4991759;28;19933;-81
2021/07/19 07:36:49;;;;;;;;;;;;;;;;;;5004099;28;19933;-81
2021/07/19 07:39:17;;;;;;;;;;;;;;;;;;4959772;28;19925;-82
2021/07/19 07:41:45;;;;;;;;;;;;;;;;;;4963242;28;20387;-80
2021/07/19 07:44:14;;;;;;;;;;;;;;;;;;4959394;28;19926;-80
2021/07/19 07:46:43;;;;;;;;;;;;;;;;;;4989876;28;19933;-80
2021/07/19 07:49:13;;;;;;;;;;;;;;;;;;4970006;28;19933;-81
2021/07/19 07:51:41;;;;;;;;;;;;;;;;;;4989333;28;19926;-85
2021/07/19 07:54:09;;;;;;;;;;;;;;;;;;4978126;28;19926;-82
2021/07/19 07:56:37;;;;;;;;;;;;;;;;;;4991875;28;19933;-81
2021/07/19 07:59:25;;;;;;;;;;;;;;;;;;4959089;28;19925;-79
2021/07/19 08:01:53;;;;;;;;;;;;;;;;;;4959784;28;19933;-81
2021/07/19 08:04:23;;;;;;;;;;;;;;;;;;4971603;28;20415;-80
2021/07/19 08:06:53;;;;;;;;;;;;;;;;;;4967926;28;20429;-82
2021/07/19 08:09:21;;;;;;;;;;;;;;;;;;4979315;28;19930;-81
2021/07/19 08:11:50;;;;;;;;;;;;;;;;;;4990403;28;19933;-79
2021/07/19 08:14:18;;;;;;;;;;;;;;;;;;4967080;28;19929;-81
2021/07/19 08:16:46;;;;;;;;;;;;;;;;;;4982651;28;19933;-80
2021/07/19 08:19:15;;;;;;;;;;;;;;;;;;4975177;28;19927;-80
2021/07/19 08:21:44;;;;;;;;;;;;;;;;;;4949868;28;19930;-80
2021/07/19 08:24:13;;;;;;;;;;;;;;;;;;4973693;28;19941;-79
2021/07/19 08:26:41;;;;;;;;;;;;;;;;;;4987526;28;19933;-80
2021/07/19 08:29:09;;;;;;;;;;;;;;;;;;4959373;28;19948;-82
2021/07/19 08:31:40;;;;;;;;;;;;;;;;;;4980678;28;19925;-80
2021/07/19 08:34:08;;;;;;;;;;;;;;;;;;4958420;28;19926;-80
2021/07/19 08:36:36;;;;;;;;;;;;;;;;;;4987196;28;19926;-80
2021/07/19 08:39:06;;;;;;;;;;;;;;;;;;4974400;28;19929;-80
2021/07/19 08:41:35;;;;;;;;;;;;;;;;;;4995134;28;19934;-81
2021/07/19 08:44:07;;;;;;;;;;;;;;;;;;4968665;28;20299;-80
2021/07/19 08:46:35;;;;;;;;;;;;;;;;;;4963054;28;19933;-81
2021/07/19 08:49:05;;;;;;;;;;;;;;;;;;4978344;28;19952;-79
2021/07/19 08:51:33;;;;;;;;;;;;;;;;;;4964932;28;19933;-81
2021/07/19 08:54:01;;;;;;;;;;;;;;;;;;4995291;28;19938;-80
2021/07/19 08:56:31;;;;;;;;;;;;;;;;;;4960654;28;19926;-80
2021/07/19 08:58:59;;;;;;;;;;;;;;;;;;4973468;28;19936;-82
2021/07/19 09:01:27;;;;;;;;;;;;;;;;;;4988405;28;20059;-81
2021/07/19 09:03:56;;;;;;;;;;;;;;;;;;4987039;28;20287;-80
2021/07/19 09:06:24;;;;;;;;;;;;;;;;;;4975194;28;20380;-80
2021/07/19 09:08:53;;;;;;;;;;;;;;;;;;4976058;28;19925;-80
2021/07/19 09:11:22;;;;;;;;;;;;;;;;;;4955442;28;19942;-81
2021/07/19 09:13:58;;;;;;;;;;;;;;;;;;4966341;28;19926;-80
2021/07/19 09:16:27;;;;;;;;;;;;;;;;;;4977065;28;19925;-81
2021/07/19 09:19:05;;;;;;;;;;;;;;;;;;4976585;28;19926;-80
2021/07/19 09:21:34;;;;;;;;;;;;;;;;;;4974490;28;19926;-79
2021/07/19 09:24:03;;;;;;;;;;;;;;;;;;4964513;28;20303;-80
2021/07/19 09:26:32;;;;;;;;;;;;;;;;;;4971396;28;20009;-80
2021/07/19 09:29:02;;;;;;;;;;;;;;;;;;4977952;28;20307;-81
2021/07/19 09:31:33;;;;;;;;;;;;;;;;;;4983866;28;20372;-80
2021/07/19 09:34:02;;;;;;;;;;;;;;;;;;4993407;28;20387;-81
2021/07/19 09:36:31;;;;;;;;;;;;;;;;;;4995375;28;20475;-79
2021/07/19 09:39:04;;;;;;;;;;;;;;;;;;4998046;28;20326;-80
2021/07/19 09:41:32;;;;;;;;;;;;;;;;;;4969549;28;19926;-79
2021/07/19 09:44:05;;;;;;;;;;;;;;;;;;4974642;28;20017;-79
2021/07/19 09:46:34;;;;;;;;;;;;;;;;;;4985026;28;19933;-80
2021/07/19 09:49:03;;;;;;;;;;;;;;;;;;4967484;28;20295;-80
2021/07/19 09:51:32;;;;;;;;;;;;;;;;;;4978467;28;19926;-80
2021/07/19 09:54:10;;;;;;;;;;;;;;;;;;4976404;28;19937;-79
2021/07/19 09:56:38;;;;;;;;;;;;;;;;;;4977106;28;19939;-79
2021/07/19 09:59:08;;;;;;;;;;;;;;;;;;4975739;28;19930;-79
2021/07/19 10:01:37;;;;;;;;;;;;;;;;;;4977545;28;19925;-80
2021/07/19 10:04:06;;;;;;;;;;;;;;;;;;4996810;28;19936;-80
2021/07/19 10:06:35;;;;;;;;;;;;;;;;;;5003640;28;19917;-80
2021/07/19 10:09:05;;;;;;;;;;;;;;;;;;4970664;28;19930;-79
2021/07/19 10:11:34;;;;;;;;;;;;;;;;;;4950076;28;19949;-81
2021/07/19 10:14:03;;;;;;;;;;;;;;;;;;4961016;28;19926;-81
2021/07/19 10:16:33;;;;;;;;;;;;;;;;;;4973932;28;19926;-79
2021/07/19 10:19:02;;;;;;;;;;;;;;;;;;4954572;28;19933;-81
2021/07/19 10:21:31;;;;;;;;;;;;;;;;;;4969829;28;20376;-78
2021/07/19 10:24:00;;;;;;;;;;;;;;;;;;4990088;28;19926;-80
2021/07/19 10:26:29;;;;;;;;;;;;;;;;;;4975312;28;19929;-79
2021/07/19 10:28:59;;;;;;;;;;;;;;;;;;4975895;28;20416;-80
2021/07/19 10:31:29;;;;;;;;;;;;;;;;;;4974425;28;19934;-79
2021/07/19 10:34:00;;;;;;;;;;;;;;;;;;4987653;28;19932;-80
2021/07/19 10:36:30;;;;;;;;;;;;;;;;;;4979158;28;20011;-79
2021/07/19 10:38:59;;;;;;;;;;;;;;;;;;4974609;28;19930;-79
2021/07/19 10:41:28;;;;;;;;;;;;;;;;;;4992921;28;19930;-80
2021/07/19 10:44:00;;;;;;;;;;;;;;;;;;4986349;28;20415;-80
2021/07/19 10:46:29;;;;;;;;;;;;;;;;;;4974935;28;19932;-81
2021/07/19 10:49:08;;;;;;;;;;;;;;;;;;4976122;28;19926;-82
2021/07/19 10:51:41;;;;;;;;;;;;;;;;;;4978358;28;20387;-80
2021/07/19 10:54:13;;;;;;;;;;;;;;;;;;4978252;28;19937;-80
2021/07/19 10:56:42;;;;;;;;;;;;;;;;;;4982923;28;19929;-82
2021/07/19 10:59:10;;;;;;;;;;;;;;;;;;4969308;28;19926;-80
2021/07/19 11:01:39;;;;;;;;;;;;;;;;;;5002552;28;20267;-81
2021/07/19 11:04:16;;;;;;;;;;;;;;;;;;4991471;28;19915;-80
2021/07/19 11:06:49;;;;;;;;;;;;;;;;;;5017061;28;19925;-81
2021/07/19 11:09:20;;;;;;;;;;;;;;;;;;5017616;28;19934;-81
2021/07/19 11:11:49;;;;;;;;;;;;;;;;;;5002674;28;19909;-82
2021/07/19 11:14:18;;;;;;;;;;;;;;;;;;4990080;28;19920;-81
2021/07/19 11:16:47;;;;;;;;;;;;;;;;;;5001928;28;20595;-81
2021/07/19 11:19:16;;;;;;;;;;;;;;;;;;5001134;28;19910;-81
2021/07/19 11:21:45;;;;;;;;;;;;;;;;;;5005005;28;19909;-81
2021/07/19 11:24:15;;;;;;;;;;;;;;;;;;5000836;28;20295;-81
2021/07/19 11:26:54;;;;;;;;;;;;;;;;;;4972669;28;19926;-81
2021/07/19 11:29:30;;;;;;;;;;;;;;;;;;4969355;28;19939;-82
2021/07/19 11:32:18;;;;;;;;;;;;;;;;;;4975636;28;19925;-81
2021/07/19 11:34:48;;;;;;;;;;;;;;;;;;4967354;28;19941;-81
2021/07/19 11:37:17;;;;;;;;;;;;;;;;;;4979072;28;19941;-82
2021/07/19 11:39:46;;;;;;;;;;;;;;;;;;4981069;28;19925;-81
2021/07/19 11:42:15;;;;;;;;;;;;;;;;;;4998207;28;19926;-81
2021/07/19 11:44:44;;;;;;;;;;;;;;;;;;4994844;28;19926;-81
2021/07/19 11:47:16;;;;;;;;;;;;;;;;;;4979495;28;19926;-81
2021/07/19 11:49:44;;;;;;;;;;;;;;;;;;4987073;28;19943;-81
2021/07/19 11:52:13;;;;;;;;;;;;;;;;;;4971674;28;19926;-81
2021/07/19 11:54:44;;;;;;;;;;;;;;;;;;4991969;28;19934;-81
2021/07/19 11:57:12;;;;;;;;;;;;;;;;;;4974889;28;19994;-81
2021/07/19 11:59:44;;;;;;;;;;;;;;;;;;4989930;28;20126;-81
2021/07/19 12:02:12;;;;;;;;;;;;;;;;;;4992247;28;19949;-81
2021/07/19 12:04:41;;;;;;;;;;;;;;;;;;4986675;28;19933;-80
2021/07/19 12:07:10;;;;;;;;;;;;;;;;;;4986083;28;20255;-80
2021/07/19 12:09:40;;;;;;;;;;;;;;;;;;4975674;28;19930;-81
2021/07/19 12:12:11;;;;;;;;;;;;;;;;;;4972750;28;19926;-81
2021/07/19 12:14:39;;;;;;;;;;;;;;;;;;4979816;28;19937;-79
2021/07/19 12:17:08;;;;;;;;;;;;;;;;;;4976912;28;19930;-81
2021/07/19 12:19:36;;;;;;;;;;;;;;;;;;4974372;28;19935;-81
2021/07/19 12:22:05;;;;;;;;;;;;;;;;;;4994631;28;19926;-80
2021/07/19 12:24:33;;;;;;;;;;;;;;;;;;4971736;28;19926;-81
2021/07/19 12:27:04;;;;;;;;;;;;;;;;;;4986052;28;19925;-81
2021/07/19 12:29:33;;;;;;;;;;;;;;;;;;5001474;28;20307;-81
2021/07/19 12:32:03;;;;;;;;;;;;;;;;;;4962018;28;19941;-80
2021/07/19 12:34:31;;;;;;;;;;;;;;;;;;4992584;28;19925;-81
2021/07/19 12:37:01;;;;;;;;;;;;;;;;;;4961465;28;20402;-81
2021/07/19 12:39:30;;;;;;;;;;;;;;;;;;4974783;28;19930;-81
2021/07/19 12:41:59;;;;;;;;;;;;;;;;;;4970203;28;19929;-81
2021/07/19 12:44:29;;;;;;;;;;;;;;;;;;4975427;28;19930;-81
2021/07/19 12:46:57;;;;;;;;;;;;;;;;;;4965598;28;19929;-81
2021/07/19 12:49:26;;;;;;;;;;;;;;;;;;4986876;28;20497;-81
2021/07/19 12:51:58;;;;;;;;;;;;;;;;;;4972139;28;19938;-81
2021/07/19 12:54:54;;;;;;;;;;;;;;;;;;4997958;28;20164;-81
2021/07/19 12:57:23;;;;;;;;;;;;;;;;;;4997276;28;19934;-81
2021/07/19 12:59:52;;;;;;;;;;;;;;;;;;4993183;28;19925;-79
2021/07/19 13:02:21;;;;;;;;;;;;;;;;;;5010369;28;19930;-81
2021/07/19 13:04:50;;;;;;;;;;;;;;;;;;4971509;28;19933;-80
2021/07/19 13:07:25;;;;;;;;;;;;;;;;;;4953015;28;19949;-80
2021/07/19 13:09:57;;;;;;;;;;;;;;;;;;4988152;28;19926;-81
2021/07/19 13:12:26;;;;;;;;;;;;;;;;;;4976788;28;19932;-78
2021/07/19 13:14:59;;;;;;;;;;;;;;;;;;4988757;28;19933;-81
2021/07/19 13:17:28;;;;;;;;;;;;;;;;;;4976761;28;19933;-79
2021/07/19 13:20:03;;;;;;;;;;;;;;;;;;4960885;28;20288;-81
2021/07/19 13:22:31;;;;;;;;;;;;;;;;;;4985119;28;19933;-80
2021/07/19 13:25:00;;;;;;;;;;;;;;;;;;4978330;28;20238;-79
2021/07/19 13:27:31;;;;;;;;;;;;;;;;;;4998167;28;19936;-80
2021/07/19 13:30:01;;;;;;;;;;;;;;;;;;5001849;28;19941;-80
2021/07/19 13:32:29;;;;;;;;;;;;;;;;;;4980988;28;19930;-80
2021/07/19 13:34:58;;;;;;;;;;;;;;;;;;4961658;28;20399;-80
2021/07/19 13:37:27;;;;;;;;;;;;;;;;;;4963771;28;19930;-80
2021/07/19 13:39:58;;;;;;;;;;;;;;;;;;4976680;28;19940;-80
2021/07/19 13:42:32;;;;;;;;;;;;;;;;;;4965309;28;19926;-79
2021/07/19 13:45:02;;;;;;;;;;;;;;;;;;4974396;28;19929;-79
2021/07/19 13:47:30;;;;;;;;;;;;;;;;;;4977542;28;19926;-80
2021/07/19 13:49:58;;;;;;;;;;;;;;;;;;4984578;28;19930;-80
2021/07/19 13:52:26;;;;;;;;;;;;;;;;;;4971842;28;19926;-80
2021/07/19 13:54:55;;;;;;;;;;;;;;;;;;4959948;28;20474;-79
2021/07/19 13:57:23;;;;;;;;;;;;;;;;;;4967120;28;19926;-80
2021/07/19 13:59:51;;;;;;;;;;;;;;;;;;4954087;28;19926;-79
2021/07/19 14:02:21;;;;;;;;;;;;;;;;;;4969623;28;19930;-80
2021/07/19 14:04:49;;;;;;;;;;;;;;;;;;4979713;28;20663;-79
2021/07/19 14:07:18;;;;;;;;;;;;;;;;;;4991245;28;19926;-82
2021/07/19 14:09:46;;;;;;;;;;;;;;;;;;4967497;28;19934;-79
2021/07/19 14:12:14;;;;;;;;;;;;;;;;;;4982485;28;19925;-80
2021/07/19 14:14:43;;;;;;;;;;;;;;;;;;4957945;28;20003;-79
2021/07/19 14:17:11;;;;;;;;;;;;;;;;;;4971344;28;19925;-79
2021/07/19 14:19:41;;;;;;;;;;;;;;;;;;4952844;28;19926;-80
2021/07/19 14:22:09;;;;;;;;;;;;;;;;;;4982664;28;19941;-80
2021/07/19 14:24:37;;;;;;;;;;;;;;;;;;4963633;28;19926;-79
2021/07/19 14:27:06;;;;;;;;;;;;;;;;;;4989239;28;19932;-78
2021/07/19 14:29:34;;;;;;;;;;;;;;;;;;4980965;28;19926;-80
2021/07/19 14:32:02;;;;;;;;;;;;;;;;;;4991701;28;19930;-81
2021/07/19 14:34:31;;;;;;;;;;;;;;;;;;4964879;28;19933;-81
2021/07/19 14:37:01;;;;;;;;;;;;;;;;;;4981854;28;20295;-80
2021/07/19 14:39:29;;;;;;;;;;;;;;;;;;4987383;28;20280;-80
2021/07/19 14:41:57;;;;;;;;;;;;;;;;;;4973068;28;19929;-80
2021/07/19 14:44:25;;;;;;;;;;;;;;;;;;4980773;28;20397;-80
2021/07/19 14:46:54;;;;;;;;;;;;;;;;;;4996110;28;19926;-80
2021/07/19 14:49:28;;;;;;;;;;;;;;;;;;4993952;28;20466;-80
2021/07/19 14:51:56;;;;;;;;;;;;;;;;;;5010678;28;19926;-80
2021/07/19 14:54:26;;;;;;;;;;;;;;;;;;5005066;28;19944;-80
2021/07/19 14:56:54;;;;;;;;;;;;;;;;;;4990161;28;19925;-80
2021/07/19 14:59:22;;;;;;;;;;;;;;;;;;4987489;28;19930;-80
2021/07/19 15:01:50;;;;;;;;;;;;;;;;;;5013622;28;20405;-80
2021/07/19 15:04:19;;;;;;;;;;;;;;;;;;5013329;28;19944;-78
2021/07/19 15:06:47;;;;;;;;;;;;;;;;;;4985507;28;19941;-79
2021/07/19 15:09:15;;;;;;;;;;;;;;;;;;4975664;28;19926;-80
2021/07/19 15:11:45;;;;;;;;;;;;;;;;;;4981491;28;19929;-80
2021/07/19 15:14:13;;;;;;;;;;;;;;;;;;4984362;28;19926;-79
2021/07/19 15:16:42;;;;;;;;;;;;;;;;;;4991237;28;19925;-81
2021/07/19 15:19:10;;;;;;;;;;;;;;;;;;4978947;28;19925;-81
2021/07/19 15:21:38;;;;;;;;;;;;;;;;;;4983112;28;19933;-80
2021/07/19 15:24:07;;;;;;;;;;;;;;;;;;4970726;28;19926;-80
2021/07/19 15:26:35;;;;;;;;;;;;;;;;;;4982045;28;19926;-81
2021/07/19 15:29:05;;;;;;;;;;;;;;;;;;4963652;28;20335;-79
2021/07/19 15:31:33;;;;;;;;;;;;;;;;;;4981380;28;19930;-81
2021/07/19 15:34:02;;;;;;;;;;;;;;;;;;4979482;28;19937;-79
2021/07/19 15:36:30;;;;;;;;;;;;;;;;;;4959910;28;19926;-80
2021/07/19 15:38:58;;;;;;;;;;;;;;;;;;4998705;28;19929;-81
2021/07/19 15:41:27;;;;;;;;;;;;;;;;;;4963907;28;19926;-80
2021/07/19 15:43:57;;;;;;;;;;;;;;;;;;4970779;28;19926;-81
2021/07/19 15:46:27;;;;;;;;;;;;;;;;;;4991846;28;19929;-80
2021/07/19 15:48:55;;;;;;;;;;;;;;;;;;4970825;28;19926;-80
2021/07/19 15:51:23;;;;;;;;;;;;;;;;;;5022067;28;19939;-78
2021/07/19 15:53:52;;;;;;;;;;;;;;;;;;5018002;28;19942;-77
2021/07/19 15:56:20;;;;;;;;;;;;;;;;;;4989603;28;19916;-77
2021/07/19 15:58:48;;;;;;;;;;;;;;;;;;5002411;28;19910;-77
2021/07/19 16:01:16;;;;;;;;;;;;;;;;;;5001923;28;19933;-80
2021/07/19 16:03:46;;;;;;;;;;;;;;;;;;5004237;28;19925;-81
2021/07/19 16:06:15;;;;;;;;;;;;;;;;;;4974809;28;19926;-79
2021/07/19 16:08:49;;;;;;;;;;;;;;;;;;4995753;28;20056;-80
2021/07/19 16:11:18;;;;;;;;;;;;;;;;;;4979233;28;20379;-80
2021/07/19 16:13:46;;;;;;;;;;;;;;;;;;4993825;28;20426;-80
2021/07/19 16:16:14;;;;;;;;;;;;;;;;;;4996174;28;19937;-80
2021/07/19 16:18:45;;;;;;;;;;;;;;;;;;4986595;28;20311;-80
2021/07/19 16:21:14;;;;;;;;;;;;;;;;;;4981089;28;19929;-81
2021/07/19 16:23:45;;;;;;;;;;;;;;;;;;4976326;28;19926;-80
2021/07/19 16:26:14;;;;;;;;;;;;;;;;;;4973147;28;20323;-79
2021/07/19 16:28:43;;;;;;;;;;;;;;;;;;4996767;28;19937;-78
2021/07/19 16:31:11;;;;;;;;;;;;;;;;;;4994118;28;19925;-80
2021/07/19 16:33:39;;;;;;;;;;;;;;;;;;4987724;28;19925;-80
2021/07/19 16:36:08;;;;;;;;;;;;;;;;;;4981219;28;20411;-79
2021/07/19 16:38:37;;;;;;;;;;;;;;;;;;4981651;28;20292;-78
2021/07/19 16:41:08;;;;;;;;;;;;;;;;;;4982701;28;19926;-80
2021/07/19 16:43:37;;;;;;;;;;;;;;;;;;4979164;28;19926;-80
2021/07/19 16:48:33;;;;;;;;;;;;;;;;;;4966381;28;19933;-80
2021/07/19 16:51:01;;;;;;;;;;;;;;;;;;4988749;28;20420;-80
2021/07/19 16:53:29;;;;;;;;;;;;;;;;;;4974433;28;21141;-80
2021/07/19 16:55:59;;;;;;;;;;;;;;;;;;4970258;28;19980;-80
2021/07/19 16:58:27;;;;;;;;;;;;;;;;;;4989358;28;19937;-80
2021/07/19 17:00:55;;;;;;;;;;;;;;;;;;4965754;28;19952;-80
2021/07/19 17:03:24;;;;;;;;;;;;;;;;;;4982497;28;19925;-80
2021/07/19 17:05:52;;;;;;;;;;;;;;;;;;4981412;28;19925;-80
2021/07/19 17:08:20;;;;;;;;;;;;;;;;;;4965535;28;19925;-80